sensor_id;sensor_type;location;lat;lon;timestamp;P1;durP1;ratioP1;P2;durP2;ratioP2
36585;SDS011;22591;48.314;11.562;2024-03-06T00:00:56;57.50;;;34.83;;
36585;SDS011;22591;48.314;11.562;2024-03-06T00:03:22;54.40;;;35.28;;
36585;SDS011;22591;48.314;11.562;2024-03-06T00:05:47;58.03;;;34.78;;
36585;SDS011;22591;48.314;11.562;2024-03-06T00:08:13;54.28;;;34.28;;
36585;SDS011;22591;48.314;11.562;2024-03-06T00:10:40;61.80;;;36.33;;
36585;SDS011;22591;48.314;11.562;2024-03-06T00:13:06;57.10;;;33.85;;
36585;SDS011;22591;48.314;11.562;2024-03-06T00:15:31;64.30;;;36.95;;
36585;SDS011;22591;48.314;11.562;2024-03-06T00:17:57;55.85;;;35.60;;
36585;SDS011;22591;48.314;11.562;2024-03-06T00:20:23;55.25;;;34.85;;
36585;SDS011;22591;48.314;11.562;2024-03-06T00:22:49;60.13;;;36.05;;
36585;SDS011;22591;48.314;11.562;2024-03-06T00:25:15;63.30;;;36.53;;
36585;SDS011;22591;48.314;11.562;2024-03-06T00:27:40;62.13;;;37.42;;
36585;SDS011;22591;48.314;11.562;2024-03-06T00:30:06;59.05;;;36.00;;
36585;SDS011;22591;48.314;11.562;2024-03-06T00:32:32;54.42;;;34.08;;
36585;SDS011;22591;48.314;11.562;2024-03-06T00:34:59;58.58;;;34.78;;
36585;SDS011;22591;48.314;11.562;2024-03-06T00:37:24;54.45;;;34.50;;
36585;SDS011;22591;48.314;11.562;2024-03-06T00:39:50;58.00;;;35.00;;
36585;SDS011;22591;48.314;11.562;2024-03-06T00:42:15;45.55;;;28.73;;
36585;SDS011;22591;48.314;11.562;2024-03-06T00:44:41;56.08;;;34.67;;
36585;SDS011;22591;48.314;11.562;2024-03-06T00:47:07;54.45;;;35.05;;
36585;SDS011;22591;48.314;11.562;2024-03-06T00:49:32;53.28;;;34.65;;
36585;SDS011;22591;48.314;11.562;2024-03-06T00:51:58;54.45;;;35.70;;
36585;SDS011;22591;48.314;11.562;2024-03-06T00:54:23;58.85;;;36.47;;
36585;SDS011;22591;48.314;11.562;2024-03-06T00:56:49;59.63;;;35.05;;
36585;SDS011;22591;48.314;11.562;2024-03-06T00:59:14;57.38;;;35.35;;
36585;SDS011;22591;48.314;11.562;2024-03-06T01:01:40;53.13;;;33.58;;
36585;SDS011;22591;48.314;11.562;2024-03-06T01:04:06;64.32;;;37.55;;
36585;SDS011;22591;48.314;11.562;2024-03-06T01:06:31;55.70;;;35.78;;
36585;SDS011;22591;48.314;11.562;2024-03-06T01:08:57;59.05;;;36.47;;
36585;SDS011;22591;48.314;11.562;2024-03-06T01:11:23;61.72;;;35.67;;
36585;SDS011;22591;48.314;11.562;2024-03-06T01:13:49;53.60;;;33.03;;
36585;SDS011;22591;48.314;11.562;2024-03-06T01:16:14;60.88;;;35.72;;
36585;SDS011;22591;48.314;11.562;2024-03-06T01:18:40;62.83;;;37.60;;
36585;SDS011;22591;48.314;11.562;2024-03-06T01:21:05;57.70;;;34.95;;
36585;SDS011;22591;48.314;11.562;2024-03-06T01:23:31;63.17;;;37.08;;
36585;SDS011;22591;48.314;11.562;2024-03-06T01:25:57;56.85;;;36.10;;
36585;SDS011;22591;48.314;11.562;2024-03-06T01:28:22;62.15;;;35.40;;
36585;SDS011;22591;48.314;11.562;2024-03-06T01:30:48;59.58;;;35.53;;
36585;SDS011;22591;48.314;11.562;2024-03-06T01:33:13;56.90;;;34.28;;
36585;SDS011;22591;48.314;11.562;2024-03-06T01:35:39;62.78;;;37.47;;
36585;SDS011;22591;48.314;11.562;2024-03-06T01:38:04;68.35;;;36.47;;
36585;SDS011;22591;48.314;11.562;2024-03-06T01:40:30;60.00;;;35.90;;
36585;SDS011;22591;48.314;11.562;2024-03-06T01:42:56;52.03;;;32.15;;
36585;SDS011;22591;48.314;11.562;2024-03-06T01:45:22;58.50;;;34.17;;
36585;SDS011;22591;48.314;11.562;2024-03-06T01:47:49;58.03;;;33.05;;
36585;SDS011;22591;48.314;11.562;2024-03-06T01:50:15;64.28;;;36.13;;
36585;SDS011;22591;48.314;11.562;2024-03-06T01:52:41;64.28;;;35.00;;
36585;SDS011;22591;48.314;11.562;2024-03-06T01:55:07;65.82;;;36.38;;
36585;SDS011;22591;48.314;11.562;2024-03-06T01:57:34;63.15;;;34.42;;
36585;SDS011;22591;48.314;11.562;2024-03-06T02:00:01;71.13;;;37.50;;
36585;SDS011;22591;48.314;11.562;2024-03-06T02:02:28;65.75;;;36.15;;
36585;SDS011;22591;48.314;11.562;2024-03-06T02:04:54;62.67;;;34.53;;
36585;SDS011;22591;48.314;11.562;2024-03-06T02:07:19;63.78;;;36.20;;
36585;SDS011;22591;48.314;11.562;2024-03-06T02:09:45;68.30;;;36.60;;
36585;SDS011;22591;48.314;11.562;2024-03-06T02:12:11;59.65;;;33.80;;
36585;SDS011;22591;48.314;11.562;2024-03-06T02:14:38;64.05;;;33.95;;
36585;SDS011;22591;48.314;11.562;2024-03-06T02:17:04;60.05;;;31.70;;
36585;SDS011;22591;48.314;11.562;2024-03-06T02:22:04;56.60;;;30.08;;
36585;SDS011;22591;48.314;11.562;2024-03-06T02:24:30;69.20;;;36.88;;
36585;SDS011;22591;48.314;11.562;2024-03-06T02:26:56;58.25;;;32.65;;
36585;SDS011;22591;48.314;11.562;2024-03-06T02:29:23;64.38;;;33.15;;
36585;SDS011;22591;48.314;11.562;2024-03-06T02:31:48;60.47;;;31.38;;
36585;SDS011;22591;48.314;11.562;2024-03-06T02:34:14;65.60;;;35.92;;
36585;SDS011;22591;48.314;11.562;2024-03-06T02:36:39;52.22;;;27.25;;
36585;SDS011;22591;48.314;11.562;2024-03-06T02:39:05;62.08;;;32.80;;
36585;SDS011;22591;48.314;11.562;2024-03-06T02:41:33;58.80;;;30.52;;
36585;SDS011;22591;48.314;11.562;2024-03-06T02:44:00;48.35;;;26.85;;
36585;SDS011;22591;48.314;11.562;2024-03-06T02:46:26;58.10;;;31.25;;
36585;SDS011;22591;48.314;11.562;2024-03-06T02:48:52;72.75;;;35.78;;
36585;SDS011;22591;48.314;11.562;2024-03-06T02:51:18;56.25;;;30.15;;
36585;SDS011;22591;48.314;11.562;2024-03-06T02:53:44;53.70;;;28.02;;
36585;SDS011;22591;48.314;11.562;2024-03-06T02:56:15;61.92;;;34.92;;
36585;SDS011;22591;48.314;11.562;2024-03-06T02:58:41;65.93;;;36.40;;
36585;SDS011;22591;48.314;11.562;2024-03-06T03:01:07;64.90;;;34.13;;
36585;SDS011;22591;48.314;11.562;2024-03-06T03:03:34;62.95;;;34.28;;
36585;SDS011;22591;48.314;11.562;2024-03-06T03:06:00;65.78;;;32.55;;
36585;SDS011;22591;48.314;11.562;2024-03-06T03:08:26;62.95;;;34.72;;
36585;SDS011;22591;48.314;11.562;2024-03-06T03:10:51;61.40;;;34.88;;
36585;SDS011;22591;48.314;11.562;2024-03-06T03:13:17;62.97;;;35.13;;
36585;SDS011;22591;48.314;11.562;2024-03-06T03:15:42;61.63;;;33.88;;
36585;SDS011;22591;48.314;11.562;2024-03-06T03:18:08;64.82;;;35.67;;
36585;SDS011;22591;48.314;11.562;2024-03-06T03:20:33;58.35;;;32.63;;
36585;SDS011;22591;48.314;11.562;2024-03-06T03:23:01;61.60;;;34.30;;
36585;SDS011;22591;48.314;11.562;2024-03-06T03:25:27;61.95;;;35.50;;
36585;SDS011;22591;48.314;11.562;2024-03-06T03:27:52;63.05;;;31.00;;
36585;SDS011;22591;48.314;11.562;2024-03-06T03:30:18;58.53;;;33.70;;
36585;SDS011;22591;48.314;11.562;2024-03-06T03:32:46;64.10;;;35.20;;
36585;SDS011;22591;48.314;11.562;2024-03-06T03:35:12;67.57;;;35.88;;
36585;SDS011;22591;48.314;11.562;2024-03-06T03:37:38;66.00;;;34.45;;
36585;SDS011;22591;48.314;11.562;2024-03-06T03:40:04;71.43;;;36.55;;
36585;SDS011;22591;48.314;11.562;2024-03-06T03:42:30;58.92;;;33.05;;
36585;SDS011;22591;48.314;11.562;2024-03-06T03:44:56;64.72;;;34.53;;
36585;SDS011;22591;48.314;11.562;2024-03-06T03:47:21;68.57;;;34.38;;
36585;SDS011;22591;48.314;11.562;2024-03-06T03:49:47;71.50;;;36.13;;
36585;SDS011;22591;48.314;11.562;2024-03-06T03:52:12;78.38;;;38.00;;
36585;SDS011;22591;48.314;11.562;2024-03-06T03:54:38;72.90;;;37.15;;
36585;SDS011;22591;48.314;11.562;2024-03-06T03:57:04;69.05;;;37.30;;
36585;SDS011;22591;48.314;11.562;2024-03-06T03:59:31;66.18;;;36.00;;
36585;SDS011;22591;48.314;11.562;2024-03-06T04:01:57;70.82;;;37.60;;
36585;SDS011;22591;48.314;11.562;2024-03-06T04:04:23;69.10;;;35.65;;
36585;SDS011;22591;48.314;11.562;2024-03-06T04:06:49;68.93;;;35.38;;
36585;SDS011;22591;48.314;11.562;2024-03-06T04:09:14;68.93;;;33.80;;
36585;SDS011;22591;48.314;11.562;2024-03-06T04:11:40;60.72;;;33.88;;
36585;SDS011;22591;48.314;11.562;2024-03-06T04:14:05;69.78;;;36.58;;
36585;SDS011;22591;48.314;11.562;2024-03-06T04:16:31;72.03;;;36.58;;
36585;SDS011;22591;48.314;11.562;2024-03-06T04:18:57;68.40;;;35.08;;
36585;SDS011;22591;48.314;11.562;2024-03-06T04:21:23;68.95;;;36.63;;
36585;SDS011;22591;48.314;11.562;2024-03-06T04:23:48;68.20;;;36.22;;
36585;SDS011;22591;48.314;11.562;2024-03-06T04:26:14;76.25;;;37.80;;
36585;SDS011;22591;48.314;11.562;2024-03-06T04:28:40;66.13;;;35.10;;
36585;SDS011;22591;48.314;11.562;2024-03-06T04:31:05;62.92;;;34.83;;
36585;SDS011;22591;48.314;11.562;2024-03-06T04:33:31;72.35;;;36.03;;
36585;SDS011;22591;48.314;11.562;2024-03-06T04:35:57;64.50;;;33.22;;
36585;SDS011;22591;48.314;11.562;2024-03-06T04:38:23;70.82;;;35.35;;
36585;SDS011;22591;48.314;11.562;2024-03-06T04:40:48;73.88;;;36.92;;
36585;SDS011;22591;48.314;11.562;2024-03-06T04:43:14;72.55;;;34.75;;
36585;SDS011;22591;48.314;11.562;2024-03-06T04:45:39;75.00;;;37.40;;
36585;SDS011;22591;48.314;11.562;2024-03-06T04:48:06;74.38;;;37.60;;
36585;SDS011;22591;48.314;11.562;2024-03-06T04:50:34;70.50;;;35.97;;
36585;SDS011;22591;48.314;11.562;2024-03-06T04:53:00;79.93;;;38.20;;
36585;SDS011;22591;48.314;11.562;2024-03-06T04:55:25;72.97;;;36.38;;
36585;SDS011;22591;48.314;11.562;2024-03-06T04:57:51;64.45;;;34.85;;
36585;SDS011;22591;48.314;11.562;2024-03-06T05:00:20;70.85;;;37.03;;
36585;SDS011;22591;48.314;11.562;2024-03-06T05:02:47;68.72;;;34.20;;
36585;SDS011;22591;48.314;11.562;2024-03-06T05:05:15;66.10;;;34.92;;
36585;SDS011;22591;48.314;11.562;2024-03-06T05:07:41;66.03;;;33.85;;
36585;SDS011;22591;48.314;11.562;2024-03-06T05:10:07;65.97;;;33.78;;
36585;SDS011;22591;48.314;11.562;2024-03-06T05:12:33;67.45;;;34.38;;
36585;SDS011;22591;48.314;11.562;2024-03-06T05:14:59;73.20;;;33.80;;
36585;SDS011;22591;48.314;11.562;2024-03-06T05:17:26;63.70;;;32.85;;
36585;SDS011;22591;48.314;11.562;2024-03-06T05:19:53;70.28;;;34.20;;
36585;SDS011;22591;48.314;11.562;2024-03-06T05:22:19;68.65;;;35.33;;
36585;SDS011;22591;48.314;11.562;2024-03-06T05:24:45;80.20;;;36.15;;
36585;SDS011;22591;48.314;11.562;2024-03-06T05:27:11;79.30;;;36.00;;
36585;SDS011;22591;48.314;11.562;2024-03-06T05:29:41;76.00;;;37.03;;
36585;SDS011;22591;48.314;11.562;2024-03-06T05:32:08;76.22;;;36.50;;
36585;SDS011;22591;48.314;11.562;2024-03-06T05:34:34;78.25;;;36.40;;
36585;SDS011;22591;48.314;11.562;2024-03-06T05:37:01;73.82;;;35.35;;
36585;SDS011;22591;48.314;11.562;2024-03-06T05:39:29;79.22;;;35.00;;
36585;SDS011;22591;48.314;11.562;2024-03-06T05:41:59;75.85;;;35.22;;
36585;SDS011;22591;48.314;11.562;2024-03-06T05:44:29;67.82;;;35.00;;
36585;SDS011;22591;48.314;11.562;2024-03-06T05:47:00;87.72;;;38.35;;
36585;SDS011;22591;48.314;11.562;2024-03-06T05:49:29;86.25;;;37.63;;
36585;SDS011;22591;48.314;11.562;2024-03-06T05:51:56;99.68;;;40.92;;
36585;SDS011;22591;48.314;11.562;2024-03-06T05:54:21;84.28;;;36.25;;
36585;SDS011;22591;48.314;11.562;2024-03-06T05:56:48;81.30;;;35.17;;
36585;SDS011;22591;48.314;11.562;2024-03-06T05:59:15;82.32;;;39.65;;
36585;SDS011;22591;48.314;11.562;2024-03-06T06:01:42;86.32;;;37.88;;
36585;SDS011;22591;48.314;11.562;2024-03-06T06:04:09;83.85;;;38.53;;
36585;SDS011;22591;48.314;11.562;2024-03-06T06:06:35;89.90;;;39.30;;
36585;SDS011;22591;48.314;11.562;2024-03-06T06:09:01;75.82;;;36.17;;
36585;SDS011;22591;48.314;11.562;2024-03-06T06:11:30;97.53;;;39.33;;
36585;SDS011;22591;48.314;11.562;2024-03-06T06:13:55;82.97;;;35.67;;
36585;SDS011;22591;48.314;11.562;2024-03-06T06:16:21;84.30;;;38.70;;
36585;SDS011;22591;48.314;11.562;2024-03-06T06:18:46;87.10;;;37.47;;
36585;SDS011;22591;48.314;11.562;2024-03-06T06:21:12;77.40;;;37.05;;
36585;SDS011;22591;48.314;11.562;2024-03-06T06:23:38;83.03;;;38.20;;
36585;SDS011;22591;48.314;11.562;2024-03-06T06:26:04;95.32;;;39.17;;
36585;SDS011;22591;48.314;11.562;2024-03-06T06:28:30;90.35;;;40.67;;
36585;SDS011;22591;48.314;11.562;2024-03-06T06:30:55;95.10;;;41.25;;
36585;SDS011;22591;48.314;11.562;2024-03-06T06:33:21;94.50;;;39.88;;
36585;SDS011;22591;48.314;11.562;2024-03-06T06:35:46;81.97;;;36.45;;
36585;SDS011;22591;48.314;11.562;2024-03-06T06:38:12;86.85;;;38.63;;
36585;SDS011;22591;48.314;11.562;2024-03-06T06:40:38;97.60;;;39.90;;
36585;SDS011;22591;48.314;11.562;2024-03-06T06:43:05;77.95;;;37.67;;
36585;SDS011;22591;48.314;11.562;2024-03-06T06:45:31;81.65;;;37.17;;
36585;SDS011;22591;48.314;11.562;2024-03-06T06:47:57;75.15;;;36.30;;
36585;SDS011;22591;48.314;11.562;2024-03-06T06:50:22;78.68;;;35.85;;
36585;SDS011;22591;48.314;11.562;2024-03-06T06:52:50;76.97;;;35.70;;
36585;SDS011;22591;48.314;11.562;2024-03-06T06:55:16;86.90;;;36.85;;
36585;SDS011;22591;48.314;11.562;2024-03-06T06:57:42;94.47;;;40.35;;
36585;SDS011;22591;48.314;11.562;2024-03-06T07:00:09;97.78;;;42.03;;
36585;SDS011;22591;48.314;11.562;2024-03-06T07:02:38;105.80;;;42.33;;
36585;SDS011;22591;48.314;11.562;2024-03-06T07:05:05;84.07;;;38.55;;
36585;SDS011;22591;48.314;11.562;2024-03-06T07:07:31;97.65;;;41.47;;
36585;SDS011;22591;48.314;11.562;2024-03-06T07:09:56;96.43;;;42.35;;
36585;SDS011;22591;48.314;11.562;2024-03-06T07:12:22;98.40;;;42.78;;
36585;SDS011;22591;48.314;11.562;2024-03-06T07:14:48;87.35;;;39.50;;
36585;SDS011;22591;48.314;11.562;2024-03-06T07:17:13;103.65;;;42.00;;
36585;SDS011;22591;48.314;11.562;2024-03-06T07:19:39;84.00;;;37.67;;
36585;SDS011;22591;48.314;11.562;2024-03-06T07:22:04;105.90;;;42.38;;
36585;SDS011;22591;48.314;11.562;2024-03-06T07:24:30;91.03;;;40.15;;
36585;SDS011;22591;48.314;11.562;2024-03-06T07:26:56;87.75;;;40.10;;
36585;SDS011;22591;48.314;11.562;2024-03-06T07:29:22;88.97;;;39.75;;
36585;SDS011;22591;48.314;11.562;2024-03-06T07:31:47;94.88;;;43.05;;
36585;SDS011;22591;48.314;11.562;2024-03-06T07:34:13;93.05;;;41.70;;
36585;SDS011;22591;48.314;11.562;2024-03-06T07:36:39;85.90;;;38.47;;
36585;SDS011;22591;48.314;11.562;2024-03-06T07:39:05;93.28;;;43.47;;
36585;SDS011;22591;48.314;11.562;2024-03-06T07:41:32;101.95;;;42.67;;
36585;SDS011;22591;48.314;11.562;2024-03-06T07:43:58;91.47;;;43.35;;
36585;SDS011;22591;48.314;11.562;2024-03-06T07:46:24;82.82;;;41.50;;
36585;SDS011;22591;48.314;11.562;2024-03-06T07:48:50;89.25;;;42.22;;
36585;SDS011;22591;48.314;11.562;2024-03-06T07:51:16;84.50;;;42.10;;
36585;SDS011;22591;48.314;11.562;2024-03-06T07:53:42;101.38;;;43.10;;
36585;SDS011;22591;48.314;11.562;2024-03-06T07:56:10;100.38;;;44.80;;
36585;SDS011;22591;48.314;11.562;2024-03-06T07:58:38;103.57;;;43.75;;
36585;SDS011;22591;48.314;11.562;2024-03-06T08:01:04;75.70;;;37.42;;
36585;SDS011;22591;48.314;11.562;2024-03-06T08:03:32;81.75;;;40.00;;
36585;SDS011;22591;48.314;11.562;2024-03-06T08:05:58;93.10;;;44.67;;
36585;SDS011;22591;48.314;11.562;2024-03-06T08:08:24;98.28;;;43.72;;
36585;SDS011;22591;48.314;11.562;2024-03-06T08:10:50;100.72;;;44.33;;
36585;SDS011;22591;48.314;11.562;2024-03-06T08:13:17;98.88;;;45.65;;
36585;SDS011;22591;48.314;11.562;2024-03-06T08:15:45;95.88;;;42.47;;
36585;SDS011;22591;48.314;11.562;2024-03-06T08:18:11;90.45;;;44.03;;
36585;SDS011;22591;48.314;11.562;2024-03-06T08:20:37;78.93;;;40.70;;
36585;SDS011;22591;48.314;11.562;2024-03-06T08:23:04;82.10;;;41.75;;
36585;SDS011;22591;48.314;11.562;2024-03-06T08:25:29;74.85;;;39.58;;
36585;SDS011;22591;48.314;11.562;2024-03-06T08:27:57;83.63;;;42.40;;
36585;SDS011;22591;48.314;11.562;2024-03-06T08:30:24;92.40;;;44.67;;
36585;SDS011;22591;48.314;11.562;2024-03-06T08:32:50;78.20;;;41.60;;
36585;SDS011;22591;48.314;11.562;2024-03-06T08:35:16;81.40;;;42.38;;
36585;SDS011;22591;48.314;11.562;2024-03-06T08:37:43;94.75;;;45.15;;
36585;SDS011;22591;48.314;11.562;2024-03-06T08:40:09;88.90;;;44.80;;
36585;SDS011;22591;48.314;11.562;2024-03-06T08:42:39;86.03;;;43.25;;
36585;SDS011;22591;48.314;11.562;2024-03-06T08:45:06;92.25;;;45.22;;
36585;SDS011;22591;48.314;11.562;2024-03-06T08:47:32;76.78;;;40.85;;
36585;SDS011;22591;48.314;11.562;2024-03-06T08:49:58;89.60;;;43.08;;
36585;SDS011;22591;48.314;11.562;2024-03-06T08:52:24;79.38;;;42.95;;
36585;SDS011;22591;48.314;11.562;2024-03-06T08:54:49;83.07;;;41.35;;
36585;SDS011;22591;48.314;11.562;2024-03-06T08:57:15;91.57;;;45.50;;
36585;SDS011;22591;48.314;11.562;2024-03-06T08:59:41;84.82;;;44.10;;
36585;SDS011;22591;48.314;11.562;2024-03-06T09:02:15;76.63;;;40.72;;
36585;SDS011;22591;48.314;11.562;2024-03-06T09:04:42;72.85;;;41.33;;
36585;SDS011;22591;48.314;11.562;2024-03-06T09:07:08;73.93;;;41.58;;
36585;SDS011;22591;48.314;11.562;2024-03-06T09:09:34;78.47;;;41.17;;
36585;SDS011;22591;48.314;11.562;2024-03-06T09:12:03;79.68;;;42.45;;
36585;SDS011;22591;48.314;11.562;2024-03-06T09:14:35;77.18;;;40.70;;
36585;SDS011;22591;48.314;11.562;2024-03-06T09:17:02;76.97;;;41.45;;
36585;SDS011;22591;48.314;11.562;2024-03-06T09:19:28;69.07;;;39.30;;
36585;SDS011;22591;48.314;11.562;2024-03-06T09:21:53;71.38;;;40.63;;
36585;SDS011;22591;48.314;11.562;2024-03-06T09:24:20;68.10;;;39.17;;
36585;SDS011;22591;48.314;11.562;2024-03-06T09:26:48;71.22;;;38.08;;
36585;SDS011;22591;48.314;11.562;2024-03-06T09:29:14;59.10;;;35.97;;
36585;SDS011;22591;48.314;11.562;2024-03-06T09:31:40;58.70;;;35.17;;
36585;SDS011;22591;48.314;11.562;2024-03-06T09:34:06;62.85;;;36.65;;
36585;SDS011;22591;48.314;11.562;2024-03-06T09:36:31;59.20;;;34.50;;
36585;SDS011;22591;48.314;11.562;2024-03-06T09:38:58;57.03;;;35.03;;
36585;SDS011;22591;48.314;11.562;2024-03-06T09:41:24;57.45;;;35.65;;
36585;SDS011;22591;48.314;11.562;2024-03-06T09:43:49;58.72;;;34.55;;
36585;SDS011;22591;48.314;11.562;2024-03-06T09:46:16;56.20;;;34.20;;
36585;SDS011;22591;48.314;11.562;2024-03-06T09:48:45;56.83;;;35.70;;
36585;SDS011;22591;48.314;11.562;2024-03-06T09:51:11;59.60;;;35.58;;
36585;SDS011;22591;48.314;11.562;2024-03-06T09:53:37;47.67;;;32.53;;
36585;SDS011;22591;48.314;11.562;2024-03-06T09:56:04;46.75;;;31.42;;
36585;SDS011;22591;48.314;11.562;2024-03-06T09:58:30;52.80;;;31.92;;
36585;SDS011;22591;48.314;11.562;2024-03-06T10:00:56;50.45;;;30.88;;
36585;SDS011;22591;48.314;11.562;2024-03-06T10:03:26;48.90;;;31.00;;
36585;SDS011;22591;48.314;11.562;2024-03-06T10:05:52;48.15;;;32.45;;
36585;SDS011;22591;48.314;11.562;2024-03-06T10:08:19;46.88;;;30.23;;
36585;SDS011;22591;48.314;11.562;2024-03-06T10:10:47;47.05;;;31.20;;
36585;SDS011;22591;48.314;11.562;2024-03-06T10:13:25;47.92;;;30.08;;
36585;SDS011;22591;48.314;11.562;2024-03-06T10:15:57;47.05;;;31.35;;
36585;SDS011;22591;48.314;11.562;2024-03-06T10:18:26;49.17;;;31.05;;
36585;SDS011;22591;48.314;11.562;2024-03-06T10:20:53;49.67;;;31.33;;
36585;SDS011;22591;48.314;11.562;2024-03-06T10:23:18;47.97;;;30.50;;
36585;SDS011;22591;48.314;11.562;2024-03-06T10:25:48;52.63;;;32.65;;
36585;SDS011;22591;48.314;11.562;2024-03-06T10:28:16;48.58;;;31.10;;
36585;SDS011;22591;48.314;11.562;2024-03-06T10:30:43;47.63;;;30.90;;
36585;SDS011;22591;48.314;11.562;2024-03-06T10:33:10;44.20;;;29.33;;
36585;SDS011;22591;48.314;11.562;2024-03-06T10:35:36;42.95;;;30.10;;
36585;SDS011;22591;48.314;11.562;2024-03-06T10:38:05;45.58;;;32.83;;
36585;SDS011;22591;48.314;11.562;2024-03-06T10:40:33;55.25;;;35.13;;
36585;SDS011;22591;48.314;11.562;2024-03-06T10:43:01;52.17;;;33.90;;
36585;SDS011;22591;48.314;11.562;2024-03-06T10:48:06;48.95;;;32.55;;
36585;SDS011;22591;48.314;11.562;2024-03-06T10:50:32;52.33;;;33.55;;
36585;SDS011;22591;48.314;11.562;2024-03-06T10:52:59;53.13;;;33.60;;
36585;SDS011;22591;48.314;11.562;2024-03-06T10:55:26;54.00;;;33.70;;
36585;SDS011;22591;48.314;11.562;2024-03-06T10:57:54;52.42;;;33.97;;
36585;SDS011;22591;48.314;11.562;2024-03-06T11:00:22;49.58;;;32.83;;
36585;SDS011;22591;48.314;11.562;2024-03-06T11:02:49;50.88;;;34.00;;
36585;SDS011;22591;48.314;11.562;2024-03-06T11:05:18;46.85;;;33.15;;
36585;SDS011;22591;48.314;11.562;2024-03-06T11:07:43;46.15;;;31.63;;
36585;SDS011;22591;48.314;11.562;2024-03-06T11:10:09;50.20;;;32.47;;
36585;SDS011;22591;48.314;11.562;2024-03-06T11:12:41;51.80;;;33.53;;
36585;SDS011;22591;48.314;11.562;2024-03-06T11:15:13;49.58;;;32.92;;
36585;SDS011;22591;48.314;11.562;2024-03-06T11:17:40;51.50;;;32.45;;
36585;SDS011;22591;48.314;11.562;2024-03-06T11:20:12;40.42;;;30.17;;
36585;SDS011;22591;48.314;11.562;2024-03-06T11:28:20;45.15;;;30.23;;
36585;SDS011;22591;48.314;11.562;2024-03-06T11:31:02;44.95;;;29.95;;
36585;SDS011;22591;48.314;11.562;2024-03-06T11:33:39;44.20;;;30.67;;
36585;SDS011;22591;48.314;11.562;2024-03-06T11:38:45;37.22;;;27.45;;
36585;SDS011;22591;48.314;11.562;2024-03-06T11:41:24;45.47;;;29.45;;
36585;SDS011;22591;48.314;11.562;2024-03-06T11:43:55;41.35;;;28.52;;
36585;SDS011;22591;48.314;11.562;2024-03-06T11:49:16;42.00;;;29.27;;
36585;SDS011;22591;48.314;11.562;2024-03-06T11:51:46;50.67;;;31.55;;
36585;SDS011;22591;48.314;11.562;2024-03-06T11:54:13;45.83;;;29.67;;
36585;SDS011;22591;48.314;11.562;2024-03-06T11:56:39;48.78;;;29.48;;
36585;SDS011;22591;48.314;11.562;2024-03-06T11:59:05;49.28;;;30.73;;
36585;SDS011;22591;48.314;11.562;2024-03-06T12:01:34;41.25;;;29.10;;
36585;SDS011;22591;48.314;11.562;2024-03-06T12:04:01;43.05;;;28.38;;
36585;SDS011;22591;48.314;11.562;2024-03-06T12:06:27;40.90;;;25.30;;
36585;SDS011;22591;48.314;11.562;2024-03-06T12:08:53;45.10;;;27.25;;
36585;SDS011;22591;48.314;11.562;2024-03-06T12:11:20;48.13;;;27.88;;
36585;SDS011;22591;48.314;11.562;2024-03-06T12:13:47;37.15;;;25.60;;
36585;SDS011;22591;48.314;11.562;2024-03-06T12:16:13;41.88;;;28.13;;
36585;SDS011;22591;48.314;11.562;2024-03-06T12:18:39;37.13;;;26.02;;
36585;SDS011;22591;48.314;11.562;2024-03-06T12:21:05;37.83;;;24.40;;
36585;SDS011;22591;48.314;11.562;2024-03-06T12:23:30;42.55;;;26.83;;
36585;SDS011;22591;48.314;11.562;2024-03-06T12:26:03;42.75;;;26.88;;
36585;SDS011;22591;48.314;11.562;2024-03-06T12:28:29;42.10;;;27.58;;
36585;SDS011;22591;48.314;11.562;2024-03-06T12:30:55;47.42;;;28.67;;
36585;SDS011;22591;48.314;11.562;2024-03-06T12:33:21;41.38;;;26.48;;
36585;SDS011;22591;48.314;11.562;2024-03-06T12:35:46;43.70;;;27.17;;
36585;SDS011;22591;48.314;11.562;2024-03-06T12:38:14;37.42;;;24.92;;
36585;SDS011;22591;48.314;11.562;2024-03-06T12:40:40;45.85;;;28.00;;
36585;SDS011;22591;48.314;11.562;2024-03-06T12:43:07;39.20;;;25.40;;
36585;SDS011;22591;48.314;11.562;2024-03-06T12:45:33;48.88;;;27.25;;
36585;SDS011;22591;48.314;11.562;2024-03-06T12:47:59;43.10;;;27.17;;
36585;SDS011;22591;48.314;11.562;2024-03-06T12:50:25;33.53;;;23.48;;
36585;SDS011;22591;48.314;11.562;2024-03-06T12:52:51;44.85;;;28.05;;
36585;SDS011;22591;48.314;11.562;2024-03-06T12:55:17;47.38;;;27.10;;
36585;SDS011;22591;48.314;11.562;2024-03-06T12:57:43;44.90;;;27.25;;
36585;SDS011;22591;48.314;11.562;2024-03-06T13:00:10;51.03;;;29.17;;
36585;SDS011;22591;48.314;11.562;2024-03-06T13:02:41;44.42;;;26.70;;
36585;SDS011;22591;48.314;11.562;2024-03-06T13:05:10;41.75;;;26.65;;
36585;SDS011;22591;48.314;11.562;2024-03-06T13:07:36;45.85;;;27.10;;
36585;SDS011;22591;48.314;11.562;2024-03-06T13:10:02;46.55;;;30.55;;
36585;SDS011;22591;48.314;11.562;2024-03-06T13:12:28;46.08;;;27.83;;
36585;SDS011;22591;48.314;11.562;2024-03-06T13:14:54;44.55;;;28.00;;
36585;SDS011;22591;48.314;11.562;2024-03-06T13:17:19;39.97;;;27.33;;
36585;SDS011;22591;48.314;11.562;2024-03-06T13:19:45;44.53;;;26.63;;
36585;SDS011;22591;48.314;11.562;2024-03-06T13:22:11;41.75;;;26.42;;
36585;SDS011;22591;48.314;11.562;2024-03-06T13:24:36;40.63;;;26.67;;
36585;SDS011;22591;48.314;11.562;2024-03-06T13:27:03;47.58;;;27.58;;
36585;SDS011;22591;48.314;11.562;2024-03-06T13:29:29;42.63;;;26.98;;
36585;SDS011;22591;48.314;11.562;2024-03-06T13:31:54;46.17;;;28.65;;
36585;SDS011;22591;48.314;11.562;2024-03-06T13:34:20;44.30;;;28.42;;
36585;SDS011;22591;48.314;11.562;2024-03-06T13:36:45;42.13;;;26.63;;
36585;SDS011;22591;48.314;11.562;2024-03-06T13:39:11;45.65;;;29.50;;
36585;SDS011;22591;48.314;11.562;2024-03-06T13:41:37;48.88;;;30.55;;
36585;SDS011;22591;48.314;11.562;2024-03-06T13:44:02;46.80;;;29.30;;
36585;SDS011;22591;48.314;11.562;2024-03-06T13:46:28;47.30;;;31.02;;
36585;SDS011;22591;48.314;11.562;2024-03-06T13:48:53;50.40;;;31.27;;
36585;SDS011;22591;48.314;11.562;2024-03-06T13:51:19;46.83;;;30.75;;
36585;SDS011;22591;48.314;11.562;2024-03-06T13:53:44;57.42;;;33.13;;
36585;SDS011;22591;48.314;11.562;2024-03-06T13:56:10;52.17;;;33.22;;
36585;SDS011;22591;48.314;11.562;2024-03-06T13:58:36;53.60;;;32.17;;
36585;SDS011;22591;48.314;11.562;2024-03-06T14:01:01;49.78;;;30.90;;
36585;SDS011;22591;48.314;11.562;2024-03-06T14:03:27;60.10;;;34.38;;
36585;SDS011;22591;48.314;11.562;2024-03-06T14:05:53;57.22;;;33.97;;
36585;SDS011;22591;48.314;11.562;2024-03-06T14:08:18;51.13;;;33.00;;
36585;SDS011;22591;48.314;11.562;2024-03-06T14:10:44;56.03;;;34.83;;
36585;SDS011;22591;48.314;11.562;2024-03-06T14:13:10;46.03;;;30.10;;
36585;SDS011;22591;48.314;11.562;2024-03-06T14:15:36;46.60;;;28.40;;
36585;SDS011;22591;48.314;11.562;2024-03-06T14:18:01;44.42;;;28.70;;
36585;SDS011;22591;48.314;11.562;2024-03-06T14:20:27;50.58;;;32.22;;